Terminal Aerodrome Forecast
Issued by NWS

Home | Current Version | Previous Version | Text Only | Print | Product List | Glossary On
Versions: 1 2 3 4 5 6 7 8 9 10 11 12 13 14 15 16 17 18
392
FTAK31 PAJN 261129
TAFAJN
TAF
PAJN 261129Z 2612/2712 08009KT P6SM VCSH FEW006 OVC035
      TEMPO 2612/2615 5SM -SHSNRA BR SCT006 OVC025
     FM261900 09011KT P6SM BKN080
     FM270700 09008KT 5SM -RASN BR SCT025 OVC035=

USA.gov is the U.S. government's official web portal to all federal, state and local government web resources and services.